Tuesday, March 31, 2015
15:32 UTC
  |  Log In   |  Register Free
Airport Search:

Pike County-Hatcher Field Airport
(KPBX)

Pike County-Hatcher Field Airport Diagram
No Airport Diagram Available

FAA data valid effective March 05, 2015 - April 30, 2015 (unless otherwise noted).

 
 
 
 
 
 
 
 
 
 
 
 
 
 

Current Aviation Weather for Pike County-Hatcher Field Airport (KPBX)

The most recent METAR observation for KPBX was updated at: 1510
METAR Summary (Translated METAR)
KPBX
311455Z AUTO 20008KT 170V230 10SM CLR 16/00 A2990 RMK AO2 T01571001
KSJS
311500Z AUTO 25013G19KT 10SM CLR 17/00 A2989 RMK AO2 T01661005
(11.8 nm NW from KPBX)
KLNP
311455Z AUTO 22016G20KT 10SM CLR 13/M04 A2997 RMK AO2
(34.5 nm SE from KPBX)
TAF Summary (Translated TAF)
KSJS
(46.1 nm NW from KLNP)
311120Z 3112/0112 21005KT P6SM SKC FM311500 23013G23KT P6SM SKC FM311900 27015G25KT P6SM SCT060 FM312300 VRB03KT P6SM SKC
  Airport Weather Conditions for KPBX

Current weather conditions are
not available for PBX


The nearest NOAA weather station
is at SJS, (11.8 nm NW from PBX)
  
 Current Weather at SJS
60° F
Fair
West winds at 10.4 mph
SJS NOAA Radar

Pressure: 29.90 in
Humidity: 34%
Wind: West at 10.4 MPH (9 KT)
Dew Point: 31.1°F
Visibility: 10.00 mi


Airport Weather Forecast for KPBX

Translated METAR and TAF for KLNP
Translated METAR for KLNP (1532 UTC 31 March 2015)
found at http://aviationweather.gov/adds/metars/
 
METAR text: KLNP 311515Z AUTO 22015G21KT 10SM CLR 13/M03 A2997 RMK AO2
Conditions at: KLNP (WISE/LONESOME PI, VA, US) observed 1515 UTC 31 March 2015
Temperature: 13.0°C (55°F)
Dewpoint: -3.0°C (27°F) [RH = 33%]
Pressure (altimeter): 29.97 inches Hg (1015.0 mb)
Winds: from the SW (220 degrees) at 17 MPH (15 knots; 7.8 m/s)
gusting to 24 MPH (21 knots; 10.9 m/s)
Visibility: 10 or more miles (16+ km)
Ceiling: at least 12,000 feet AGL
Clouds: sky clear below 12,000 feet AGL
Weather: automated observation with no human augmentation;
there may or may not be significant weather present at this time
Translated TAF for KLNP

There is no translated TAF available for this airport

Find All Airport Services Find A Hotel Find A Rental Car Find A Golf Course Find A Restaurant $100 Hamburger



FBO's on the Field
FBO Company Facility Photos Services Transportation Aviation Fuel Prices: Prices include tax
Catering Weather Repair Courtesy Rental Type 100LL JetA JetA+ MOGAS 8087
 
Pikeville-Pike Airport

This FBO has not yet been rated
FS:Shell
Last Updated: Mar-20
Login to update fuel prices
SS:
Contact Pikeville-Pike AirportMore FBO Information
 
Add another FBO Facility Photos Catering Weather Repair Courtesy Rental Type 100LL JetA JetA+ MOGAS 8087
Services Transportation Aviation Fuel Prices: Prices include tax


model-print
model-print
model-print
model-print